Time;durP1;ratioP1;P1;durP2;ratioP2;P2;SDS_P1;SDS_P2;PMS_P1;PMS_P2;Temp;Humidity;BMP_temperature;BMP_pressure;BME280_temperature;BME280_humidity;BME280_pressure;Samples;Min_cycle;Max_cycle;Signal;HPM_P1;HPM_P2
2023/03/13 00:00:53;;;;;;;15.02;4.60;;;8.90;99.90;;;;;;5063611;28;20021;-88
2023/03/13 00:03:18;;;;;;;14.05;4.07;;;8.80;99.90;;;;;;5057150;28;20183;-87
2023/03/13 00:05:44;;;;;;;16.17;4.72;;;8.80;99.90;;;;;;5058993;28;20112;-88
2023/03/13 00:08:10;;;;;;;19.45;4.18;;;8.80;99.90;;;;;;5062939;28;20470;-88
2023/03/13 00:10:39;;;;;;;17.65;3.55;;;8.80;99.90;;;;;;5060790;28;20032;-87
2023/03/13 00:13:06;;;;;;;20.02;4.75;;;8.80;99.90;;;;;;5061393;28;20041;-89
2023/03/13 00:15:32;;;;;;;23.13;4.40;;;8.80;99.90;;;;;;5064012;28;20029;-87
2023/03/13 00:17:58;;;;;;;14.07;3.88;;;8.80;99.90;;;;;;5057905;28;20371;-88
2023/03/13 00:20:23;;;;;;;24.40;4.63;;;8.80;99.90;;;;;;5062941;28;20029;-88
2023/03/13 00:22:49;;;;;;;17.98;4.70;;;8.90;99.90;;;;;;5063246;28;20025;-89
2023/03/13 00:25:15;;;;;;;24.90;5.72;;;8.90;99.90;;;;;;5056378;28;20394;-87
2023/03/13 00:27:40;;;;;;;18.30;4.93;;;8.90;99.90;;;;;;5063659;28;20064;-87
2023/03/13 00:30:09;;;;;;;19.52;4.95;;;8.80;99.90;;;;;;5058557;28;20024;-88
2023/03/13 00:32:42;;;;;;;18.33;4.40;;;8.90;99.90;;;;;;5061383;28;20071;-86
2023/03/13 00:35:08;;;;;;;26.33;5.20;;;8.80;99.90;;;;;;5062276;28;20060;-87
2023/03/13 00:37:33;;;;;;;18.30;4.68;;;8.90;99.90;;;;;;5062092;28;20032;-85
2023/03/13 00:39:59;;;;;;;18.70;4.10;;;8.90;99.90;;;;;;5058477;28;20024;-88
2023/03/13 00:42:24;;;;;;;22.95;5.05;;;8.90;99.90;;;;;;5062061;28;20029;-87
2023/03/13 00:44:50;;;;;;;22.25;4.60;;;8.90;99.90;;;;;;5062897;28;20036;-89
2023/03/13 00:47:16;;;;;;;26.60;5.30;;;8.90;99.90;;;;;;5061822;28;20545;-86
2023/03/13 00:49:41;;;;;;;23.52;4.85;;;8.90;99.90;;;;;;5060469;28;20037;-88
2023/03/13 00:52:07;;;;;;;18.92;3.75;;;8.90;99.90;;;;;;5061394;28;20032;-88
2023/03/13 00:54:32;;;;;;;21.65;5.43;;;8.90;99.90;;;;;;5064095;28;20082;-90
2023/03/13 00:56:58;;;;;;;18.38;4.30;;;8.90;99.90;;;;;;5061506;28;20024;-87
2023/03/13 00:59:24;;;;;;;20.85;4.28;;;8.90;99.90;;;;;;5065333;28;20231;-89
2023/03/13 01:01:50;;;;;;;21.67;4.43;;;8.90;99.90;;;;;;5067183;28;20021;-88
2023/03/13 01:04:15;;;;;;;18.45;4.75;;;8.90;99.90;;;;;;5065689;28;20492;-86
2023/03/13 01:06:42;;;;;;;22.17;4.60;;;8.90;99.90;;;;;;5068489;28;20080;-85
2023/03/13 01:09:11;;;;;;;14.88;4.45;;;8.90;99.90;;;;;;5065687;28;20440;-89
2023/03/13 01:11:38;;;;;;;19.55;4.60;;;9.00;99.90;;;;;;5063471;28;20090;-88
2023/03/13 01:14:08;;;;;;;18.35;4.22;;;9.00;99.90;;;;;;5064169;28;20119;-88
2023/03/13 01:16:35;;;;;;;23.60;5.20;;;9.00;99.90;;;;;;5062701;28;20097;-88
2023/03/13 01:19:09;;;;;;;22.08;5.18;;;9.00;99.90;;;;;;5065639;28;20309;-89
2023/03/13 01:21:34;;;;;;;22.77;5.68;;;9.00;99.90;;;;;;5067182;28;20029;-88
2023/03/13 01:24:01;;;;;;;23.63;5.57;;;9.00;99.90;;;;;;5065137;28;20056;-88
2023/03/13 01:26:27;;;;;;;18.95;5.63;;;9.10;99.90;;;;;;5063932;28;20024;-88
2023/03/13 01:28:52;;;;;;;18.30;4.95;;;9.00;99.90;;;;;;5064387;28;20486;-89
2023/03/13 01:31:23;;;;;;;13.15;4.57;;;9.10;99.90;;;;;;5066902;28;20029;-88
2023/03/13 01:33:52;;;;;;;17.38;4.45;;;9.10;99.90;;;;;;5066120;28;20048;-88
2023/03/13 01:36:18;;;;;;;17.52;4.75;;;9.10;99.90;;;;;;5061220;28;20017;-86
2023/03/13 01:38:51;;;;;;;23.60;5.60;;;9.10;99.90;;;;;;5065143;28;20037;-88
2023/03/13 01:41:21;;;;;;;24.58;5.68;;;9.20;99.90;;;;;;5059663;28;20061;-89
2023/03/13 01:43:47;;;;;;;23.42;6.20;;;9.20;99.90;;;;;;5064276;28;20033;-89
2023/03/13 01:46:18;;;;;;;28.70;5.78;;;9.20;99.90;;;;;;5062543;28;20094;-89
2023/03/13 01:48:46;;;;;;;18.35;5.90;;;9.20;99.90;;;;;;5065237;28;20033;-87
2023/03/13 01:51:49;;;;;;;16.10;4.85;;;9.20;99.90;;;;;;5061026;28;20371;-88
2023/03/13 01:54:30;;;;;;;17.80;5.60;;;9.20;99.90;;;;;;5050620;28;20056;-87
2023/03/13 01:57:07;;;;;;;20.45;5.32;;;9.20;99.90;;;;;;5060534;28;20480;-87
2023/03/13 01:59:39;;;;;;;21.40;5.10;;;9.30;99.90;;;;;;5065445;28;20025;-87
2023/03/13 02:02:06;;;;;;;19.42;5.57;;;9.30;99.90;;;;;;5061931;28;20087;-87
2023/03/13 02:04:38;;;;;;;13.90;4.72;;;9.30;99.90;;;;;;5063863;28;20064;-87
2023/03/13 02:07:08;;;;;;;12.15;4.78;;;9.40;99.90;;;;;;5060289;28;20048;-88
2023/03/13 02:09:35;;;;;;;19.15;5.97;;;9.40;99.90;;;;;;5059878;28;20377;-87
2023/03/13 02:12:15;;;;;;;14.50;5.60;;;9.40;99.90;;;;;;5065233;28;20059;-88
2023/03/13 02:14:43;;;;;;;18.13;6.22;;;9.40;99.90;;;;;;5081042;28;20029;-89
2023/03/13 02:17:09;;;;;;;17.98;5.63;;;9.40;99.90;;;;;;5059888;28;20025;-87
2023/03/13 02:19:43;;;;;;;17.50;6.25;;;9.50;99.90;;;;;;5063892;28;20032;-88
2023/03/13 02:22:21;;;;;;;11.27;4.80;;;9.50;99.90;;;;;;5064380;28;22161;-87
2023/03/13 02:24:53;;;;;;;12.52;5.18;;;9.50;99.90;;;;;;5061887;28;20031;-90
2023/03/13 02:27:19;;;;;;;15.68;5.45;;;9.60;99.90;;;;;;5060306;28;20074;-86
2023/03/13 02:29:44;;;;;;;16.40;5.43;;;9.60;99.90;;;;;;5063239;28;20036;-88
2023/03/13 02:32:11;;;;;;;14.43;6.15;;;9.60;99.90;;;;;;5062716;28;20043;-86
2023/03/13 02:34:39;;;;;;;16.80;6.80;;;9.70;99.90;;;;;;5061345;28;20032;-88
2023/03/13 02:37:09;;;;;;;10.75;5.22;;;9.70;99.90;;;;;;5065123;28;20371;-86
2023/03/13 02:39:37;;;;;;;21.05;7.70;;;9.70;99.90;;;;;;5062608;28;20426;-88
2023/03/13 02:42:04;;;;;;;15.35;6.65;;;9.80;99.90;;;;;;5059736;28;20119;-87
2023/03/13 02:44:30;;;;;;;13.25;6.53;;;9.80;99.90;;;;;;5058238;28;20025;-88
2023/03/13 02:46:55;;;;;;;12.18;6.68;;;9.90;99.90;;;;;;5065086;28;20074;-87
2023/03/13 02:49:25;;;;;;;15.02;7.53;;;9.90;99.90;;;;;;5064121;28;20597;-88
2023/03/13 02:51:52;;;;;;;12.65;6.85;;;9.90;99.90;;;;;;5077619;28;20701;-88
2023/03/13 02:54:31;;;;;;;18.00;7.97;;;9.90;99.90;;;;;;5058875;28;20115;-88
2023/03/13 02:57:01;;;;;;;14.27;6.55;;;10.00;99.90;;;;;;5062374;28;20398;-86
2023/03/13 02:59:26;;;;;;;14.88;6.05;;;10.00;99.90;;;;;;5058657;28;20485;-87
2023/03/13 03:01:52;;;;;;;13.65;6.95;;;10.00;99.90;;;;;;5063736;28;20025;-87
2023/03/13 03:04:20;;;;;;;16.17;7.10;;;10.10;99.90;;;;;;5062320;28;20083;-86
2023/03/13 03:06:48;;;;;;;15.38;7.85;;;10.10;99.90;;;;;;5078476;28;20036;-87
2023/03/13 03:09:14;;;;;;;11.75;6.68;;;10.10;99.90;;;;;;5059336;28;20064;-88
2023/03/13 03:11:40;;;;;;;12.20;6.38;;;10.10;99.90;;;;;;5058674;28;20032;-87
2023/03/13 03:14:07;;;;;;;9.90;6.40;;;10.20;99.90;;;;;;5063124;28;20074;-87
2023/03/13 03:16:32;;;;;;;13.60;7.40;;;10.20;99.90;;;;;;5064412;28;20031;-88
2023/03/13 03:18:58;;;;;;;13.40;6.90;;;10.20;99.90;;;;;;5064456;28;20111;-87
2023/03/13 03:21:24;;;;;;;11.00;6.85;;;10.30;99.90;;;;;;5060319;28;20935;-86
2023/03/13 03:23:50;;;;;;;14.00;6.43;;;10.30;99.90;;;;;;5061170;28;20025;-87
2023/03/13 03:26:16;;;;;;;12.80;5.95;;;10.30;99.90;;;;;;5058222;28;20032;-87
2023/03/13 03:28:41;;;;;;;13.57;6.65;;;10.40;99.90;;;;;;5060896;28;20020;-86
2023/03/13 03:31:12;;;;;;;13.98;6.97;;;10.40;99.90;;;;;;5061759;28;20024;-86
2023/03/13 03:33:38;;;;;;;13.65;7.28;;;10.50;99.90;;;;;;5069606;28;20111;-86
2023/03/13 03:36:12;;;;;;;11.10;6.20;;;10.50;99.90;;;;;;5060128;28;20142;-87
2023/03/13 03:38:39;;;;;;;11.10;6.45;;;10.50;99.90;;;;;;5061194;28;20421;-87
2023/03/13 03:41:05;;;;;;;12.40;6.85;;;10.60;99.90;;;;;;5061211;28;20036;-86
2023/03/13 03:43:31;;;;;;;10.38;5.78;;;10.60;99.90;;;;;;5062742;28;20602;-87
2023/03/13 03:45:57;;;;;;;12.00;6.88;;;10.60;99.90;;;;;;5067291;28;20032;-86
2023/03/13 03:48:22;;;;;;;12.25;7.18;;;10.70;99.90;;;;;;5061767;28;20078;-87
2023/03/13 03:50:48;;;;;;;9.10;6.15;;;10.70;99.90;;;;;;5060018;28;20167;-88
2023/03/13 03:53:14;;;;;;;13.52;7.63;;;10.70;99.90;;;;;;5062005;28;20028;-88
2023/03/13 03:55:39;;;;;;;9.70;6.95;;;10.80;99.90;;;;;;5064575;28;20043;-87
2023/03/13 03:58:05;;;;;;;11.20;7.07;;;10.80;99.90;;;;;;5061064;28;20032;-89
2023/03/13 04:00:30;;;;;;;10.63;6.82;;;10.80;99.90;;;;;;5063352;28;20106;-89
2023/03/13 04:02:56;;;;;;;12.50;6.57;;;10.90;99.90;;;;;;5064045;28;20049;-88
2023/03/13 04:05:23;;;;;;;8.95;6.20;;;10.90;99.90;;;;;;5068981;28;20024;-89
2023/03/13 04:07:49;;;;;;;11.65;6.75;;;10.90;99.90;;;;;;5057970;28;20489;-87
2023/03/13 04:10:14;;;;;;;11.57;6.18;;;10.90;99.90;;;;;;5062217;28;20033;-88
2023/03/13 04:12:40;;;;;;;12.30;6.82;;;11.00;99.90;;;;;;5061833;28;20031;-86
2023/03/13 04:15:06;;;;;;;10.68;6.78;;;10.90;99.90;;;;;;5061822;28;20497;-87
2023/03/13 04:17:32;;;;;;;9.13;6.47;;;11.00;99.90;;;;;;5063864;28;20098;-88
2023/03/13 04:19:58;;;;;;;8.05;5.50;;;11.00;99.90;;;;;;5057357;28;20033;-87
2023/03/13 04:22:24;;;;;;;9.23;5.80;;;11.00;99.90;;;;;;5063206;28;20425;-86
2023/03/13 04:24:49;;;;;;;11.23;6.90;;;11.10;99.90;;;;;;5064394;28;20025;-88
2023/03/13 04:27:15;;;;;;;10.95;7.35;;;11.10;99.90;;;;;;5062100;28;20032;-87
2023/03/13 04:29:41;;;;;;;9.77;7.30;;;11.10;99.90;;;;;;5068321;28;20028;-89
2023/03/13 04:32:06;;;;;;;12.77;8.25;;;11.10;99.90;;;;;;5063746;28;20074;-87
2023/03/13 04:34:35;;;;;;;11.40;8.10;;;11.20;99.90;;;;;;5062201;28;20799;-88
2023/03/13 04:37:00;;;;;;;12.75;8.15;;;11.20;99.90;;;;;;5062274;28;20066;-86
2023/03/13 04:39:26;;;;;;;11.90;7.97;;;11.20;99.90;;;;;;5067216;28;20032;-87
2023/03/13 04:41:52;;;;;;;12.23;7.80;;;11.30;99.90;;;;;;5065618;28;20024;-88
2023/03/13 04:44:18;;;;;;;11.90;8.15;;;11.20;99.90;;;;;;5064134;28;20023;-88
2023/03/13 04:46:44;;;;;;;10.98;7.60;;;11.20;99.90;;;;;;5065709;28;20025;-87
2023/03/13 04:49:09;;;;;;;12.57;7.30;;;11.30;99.90;;;;;;5065319;28;20027;-87
2023/03/13 04:51:35;;;;;;;11.27;7.93;;;11.30;99.90;;;;;;5059850;28;20389;-87
2023/03/13 04:54:00;;;;;;;13.15;8.02;;;11.30;99.90;;;;;;5065184;28;20051;-88
2023/03/13 04:56:27;;;;;;;11.13;7.47;;;11.30;99.90;;;;;;5059243;28;20021;-89
2023/03/13 04:58:53;;;;;;;10.65;7.60;;;11.30;99.90;;;;;;5062271;28;20024;-89
2023/03/13 05:01:19;;;;;;;13.95;8.48;;;11.40;99.90;;;;;;5066650;28;20051;-89
2023/03/13 05:03:45;;;;;;;14.52;8.27;;;11.40;99.90;;;;;;5060595;28;20391;-90
2023/03/13 05:06:11;;;;;;;12.05;8.70;;;11.50;99.90;;;;;;5061209;28;20031;-87
2023/03/13 05:08:37;;;;;;;12.05;8.50;;;11.40;99.90;;;;;;5067433;28;20032;-87
2023/03/13 05:11:03;;;;;;;12.43;8.30;;;11.50;99.90;;;;;;5066232;28;20472;-88
2023/03/13 05:13:32;;;;;;;11.73;7.90;;;11.50;99.90;;;;;;5081430;28;20060;-87
2023/03/13 05:15:57;;;;;;;11.82;7.95;;;11.50;99.90;;;;;;5083251;28;20112;-87
2023/03/13 05:18:23;;;;;;;12.98;8.52;;;11.50;99.90;;;;;;5061258;28;20048;-89
2023/03/13 05:20:49;;;;;;;13.77;8.60;;;11.50;99.90;;;;;;5067029;28;20037;-88
2023/03/13 05:23:14;;;;;;;16.90;8.88;;;11.60;99.90;;;;;;5060357;28;20132;-88
2023/03/13 05:25:40;;;;;;;14.65;8.82;;;11.60;99.90;;;;;;5065743;28;20024;-88
2023/03/13 05:28:06;;;;;;;12.77;8.52;;;11.60;99.90;;;;;;5063016;28;20065;-89
2023/03/13 05:30:32;;;;;;;15.07;9.15;;;11.70;99.90;;;;;;5064508;28;20552;-88
2023/03/13 05:32:57;;;;;;;10.65;7.70;;;11.70;99.90;;;;;;5062157;28;20029;-86
2023/03/13 05:35:23;;;;;;;12.95;7.95;;;11.70;99.90;;;;;;5063734;28;20041;-88
2023/03/13 05:37:49;;;;;;;13.32;8.00;;;11.70;99.90;;;;;;5058132;28;20020;-88
2023/03/13 05:40:14;;;;;;;10.38;7.35;;;11.80;99.90;;;;;;5080011;28;20101;-87
2023/03/13 05:42:40;;;;;;;13.30;8.65;;;11.80;99.90;;;;;;5062937;28;20391;-88
2023/03/13 05:45:08;;;;;;;11.00;8.10;;;11.80;99.90;;;;;;5064119;28;20064;-87
2023/03/13 05:47:34;;;;;;;10.75;6.80;;;11.80;99.90;;;;;;5058931;28;20025;-87
2023/03/13 05:50:00;;;;;;;12.57;7.95;;;11.80;99.90;;;;;;5063178;28;20545;-87
2023/03/13 05:52:25;;;;;;;9.05;6.55;;;11.80;99.90;;;;;;5065591;28;20025;-88
2023/03/13 05:54:51;;;;;;;11.25;7.30;;;11.80;99.90;;;;;;5060160;28;20131;-88
2023/03/13 05:57:16;;;;;;;11.48;7.18;;;11.90;99.90;;;;;;5065232;28;20036;-88
2023/03/13 05:59:42;;;;;;;12.13;7.43;;;11.90;99.90;;;;;;5063683;28;20081;-89
2023/03/13 06:02:11;;;;;;;9.60;6.78;;;11.80;99.90;;;;;;5059594;28;20482;-87
2023/03/13 06:04:36;;;;;;;10.85;6.53;;;11.90;99.90;;;;;;5063813;28;20985;-88
2023/03/13 06:07:02;;;;;;;9.10;6.55;;;11.90;99.90;;;;;;5059296;28;20012;-88
2023/03/13 06:09:27;;;;;;;9.55;6.13;;;11.90;99.90;;;;;;5065279;28;20383;-88
2023/03/13 06:11:54;;;;;;;11.55;7.07;;;11.90;99.90;;;;;;5071764;28;20097;-86
2023/03/13 06:14:19;;;;;;;9.27;6.68;;;11.90;99.90;;;;;;5064005;28;20041;-86
2023/03/13 06:16:45;;;;;;;11.40;6.97;;;12.00;99.90;;;;;;5064567;28;20036;-89
2023/03/13 06:19:11;;;;;;;10.85;6.78;;;12.00;99.90;;;;;;5061815;28;20032;-87
2023/03/13 06:21:37;;;;;;;10.40;6.20;;;12.10;99.90;;;;;;5058493;28;20033;-88
2023/03/13 06:24:03;;;;;;;9.60;5.93;;;12.10;99.90;;;;;;5062062;28;20024;-87
2023/03/13 06:26:28;;;;;;;8.68;6.28;;;12.10;99.90;;;;;;5060724;28;20033;-88
2023/03/13 06:28:54;;;;;;;10.70;6.07;;;12.20;99.90;;;;;;5062558;28;20127;-88
2023/03/13 06:31:20;;;;;;;8.73;6.22;;;12.20;99.90;;;;;;5064895;28;20033;-88
2023/03/13 06:33:46;;;;;;;9.15;5.20;;;12.20;99.90;;;;;;5060464;28;20021;-88
2023/03/13 06:36:12;;;;;;;7.72;5.50;;;12.20;99.90;;;;;;5063679;28;20482;-87
2023/03/13 06:38:37;;;;;;;8.63;5.82;;;12.20;99.90;;;;;;5065628;28;20024;-88
2023/03/13 06:41:03;;;;;;;9.38;5.13;;;12.30;99.90;;;;;;5063011;28;20025;-88
2023/03/13 06:43:32;;;;;;;8.52;4.95;;;12.20;99.90;;;;;;5079645;28;20033;-88
2023/03/13 06:46:03;;;;;;;10.75;5.32;;;12.30;99.90;;;;;;5063883;28;20059;-89
2023/03/13 06:48:28;;;;;;;10.27;5.18;;;12.30;99.90;;;;;;5079945;28;20028;-88
2023/03/13 06:50:55;;;;;;;7.68;5.20;;;12.30;99.90;;;;;;5061298;28;20066;-88
2023/03/13 06:53:21;;;;;;;10.30;5.28;;;12.30;99.90;;;;;;5061448;28;20557;-89
2023/03/13 06:55:48;;;;;;;9.13;4.85;;;12.30;99.90;;;;;;5064291;28;20036;-89
2023/03/13 06:58:14;;;;;;;10.60;5.05;;;12.40;99.90;;;;;;5062991;28;20470;-87
2023/03/13 07:00:41;;;;;;;9.30;4.85;;;12.40;99.90;;;;;;5058561;28;20427;-88
2023/03/13 07:03:07;;;;;;;9.68;4.70;;;12.40;99.90;;;;;;5062496;28;20044;-87
2023/03/13 07:05:32;;;;;;;13.07;4.43;;;12.40;99.90;;;;;;5063468;28;20390;-87
2023/03/13 07:07:58;;;;;;;10.73;4.72;;;12.40;99.90;;;;;;5060087;28;20020;-89
2023/03/13 07:10:24;;;;;;;10.43;4.10;;;12.50;99.90;;;;;;5063976;28;20031;-89
2023/03/13 07:12:49;;;;;;;9.55;3.97;;;12.40;99.90;;;;;;5063706;28;20077;-88
2023/03/13 07:15:15;;;;;;;12.55;4.40;;;12.40;99.90;;;;;;5060415;28;20040;-88
2023/03/13 07:17:42;;;;;;;8.15;4.15;;;12.40;99.90;;;;;;5058894;28;20031;-89
2023/03/13 07:20:11;;;;;;;9.27;4.03;;;12.50;99.90;;;;;;5080650;28;20123;-89
2023/03/13 07:22:37;;;;;;;10.20;4.45;;;12.50;99.90;;;;;;5062723;28;20055;-87
2023/03/13 07:25:03;;;;;;;8.75;3.63;;;12.50;99.90;;;;;;5063314;28;20059;-88
2023/03/13 07:27:31;;;;;;;11.27;4.07;;;12.50;99.90;;;;;;5060506;28;20025;-88
2023/03/13 07:29:57;;;;;;;11.90;4.13;;;12.60;99.90;;;;;;5063365;28;20024;-87
2023/03/13 07:32:23;;;;;;;10.27;3.40;;;12.60;99.90;;;;;;5061040;28;20082;-88
2023/03/13 07:34:48;;;;;;;9.30;4.00;;;12.60;99.90;;;;;;5059319;28;20044;-89
2023/03/13 07:37:15;;;;;;;7.70;3.55;;;12.70;99.90;;;;;;5058028;28;20028;-88
2023/03/13 07:39:42;;;;;;;7.20;3.30;;;12.70;99.90;;;;;;5064516;28;20036;-88
2023/03/13 07:42:10;;;;;;;7.40;3.58;;;12.80;99.90;;;;;;5060303;28;20095;-90
2023/03/13 07:44:36;;;;;;;9.10;3.50;;;12.80;99.90;;;;;;5064326;28;20051;-88
2023/03/13 07:47:01;;;;;;;9.07;3.33;;;12.80;99.90;;;;;;5063550;28;20117;-85
2023/03/13 07:49:27;;;;;;;8.45;3.30;;;12.90;99.90;;;;;;5062151;28;20493;-88
2023/03/13 07:51:53;;;;;;;10.75;3.88;;;12.80;99.90;;;;;;5062265;28;20025;-88
2023/03/13 07:54:18;;;;;;;6.65;3.55;;;12.90;99.90;;;;;;5061218;28;20048;-87
2023/03/13 07:56:44;;;;;;;9.13;3.35;;;12.90;99.90;;;;;;5062712;28;20366;-89
2023/03/13 07:59:10;;;;;;;8.75;3.50;;;12.80;99.90;;;;;;5062485;28;20054;-90
2023/03/13 08:01:35;;;;;;;8.75;3.33;;;12.90;99.90;;;;;;5062872;28;20032;-90
2023/03/13 08:04:01;;;;;;;7.10;3.47;;;12.80;99.90;;;;;;5059209;28;20052;-88
2023/03/13 08:06:29;;;;;;;9.13;4.30;;;12.70;99.90;;;;;;5067999;28;20150;-89
2023/03/13 08:08:58;;;;;;;7.95;3.40;;;12.60;99.90;;;;;;5058007;28;20036;-89
2023/03/13 08:11:25;;;;;;;9.07;3.65;;;12.60;99.90;;;;;;5061728;28;20382;-90
2023/03/13 08:13:52;;;;;;;7.65;3.25;;;12.60;99.90;;;;;;5058453;28;20378;-90
2023/03/13 08:16:21;;;;;;;6.63;3.35;;;12.50;99.90;;;;;;5060630;28;20025;-91
2023/03/13 08:18:53;;;;;;;6.95;3.05;;;12.40;99.90;;;;;;5064005;28;20086;-89
2023/03/13 08:21:21;;;;;;;7.28;2.78;;;12.40;99.90;;;;;;5060129;28;20500;-89
2023/03/13 08:23:47;;;;;;;7.20;3.03;;;12.40;99.90;;;;;;5061490;28;20363;-88
2023/03/13 08:26:18;;;;;;;6.45;3.17;;;12.40;99.90;;;;;;5061962;28;20382;-89
2023/03/13 08:28:45;;;;;;;10.38;3.45;;;12.60;99.90;;;;;;5059690;28;20052;-89
2023/03/13 08:31:12;;;;;;;7.55;3.05;;;12.70;99.90;;;;;;5058861;28;20032;-88
2023/03/13 08:33:40;;;;;;;7.43;3.88;;;12.90;99.90;;;;;;5062167;28;20069;-88
2023/03/13 08:36:27;;;;;;;10.02;3.08;;;13.10;99.90;;;;;;5062390;28;20037;-88
2023/03/13 08:38:56;;;;;;;7.72;3.17;;;13.10;99.90;;;;;;5057799;28;20366;-88
2023/03/13 08:41:24;;;;;;;8.32;3.00;;;13.10;99.90;;;;;;5077298;28;20025;-89
2023/03/13 08:43:56;;;;;;;6.47;3.13;;;13.00;99.90;;;;;;5063423;28;20676;-90
2023/03/13 08:46:22;;;;;;;6.45;2.85;;;12.90;99.90;;;;;;5058697;28;20452;-89
2023/03/13 08:48:52;;;;;;;6.32;3.05;;;12.70;99.90;;;;;;5058782;28;20017;-88
2023/03/13 08:51:20;;;;;;;7.75;3.13;;;12.70;99.90;;;;;;5061872;28;20120;-90
2023/03/13 08:53:46;;;;;;;8.85;3.10;;;12.60;99.90;;;;;;5060963;28;20033;-88
2023/03/13 08:56:14;;;;;;;6.03;2.67;;;12.70;99.90;;;;;;5077546;28;20114;-90
2023/03/13 08:58:40;;;;;;;5.10;2.60;;;12.90;99.90;;;;;;5061933;28;20043;-88
2023/03/13 09:01:14;;;;;;;5.90;2.70;;;13.00;99.90;;;;;;5060517;28;20394;-89
2023/03/13 09:03:40;;;;;;;;;;;13.20;99.90;;;;;;5058119;28;20055;-86
2023/03/13 09:06:06;;;;;;;7.53;2.80;;;13.30;99.90;;;;;;5057412;28;19916;-88
2023/03/13 09:08:33;;;;;;;5.57;2.67;;;13.50;99.90;;;;;;5060475;28;20036;-90
2023/03/13 09:11:13;;;;;;;9.02;3.42;;;13.60;99.90;;;;;;5059631;28;20028;-90
2023/03/13 09:13:42;;;;;;;8.82;3.58;;;13.80;99.90;;;;;;5063462;28;20051;-91
2023/03/13 09:16:10;;;;;;;5.35;2.28;;;13.90;99.90;;;;;;5062882;28;20326;-88
2023/03/13 09:18:36;;;;;;;7.45;2.53;;;14.00;99.90;;;;;;5062868;28;20640;-91
2023/03/13 09:21:04;;;;;;;5.78;2.47;;;14.00;99.90;;;;;;5064380;28;20147;-89
2023/03/13 09:23:31;;;;;;;5.15;2.10;;;13.90;99.90;;;;;;5065763;28;20017;-90
2023/03/13 09:25:56;;;;;;;7.57;2.42;;;13.90;99.90;;;;;;5061013;28;20028;-91
2023/03/13 09:28:24;;;;;;;6.53;2.10;;;14.00;99.90;;;;;;5066435;28;20052;-89
2023/03/13 09:30:50;;;;;;;8.95;2.38;;;14.10;99.90;;;;;;5064948;28;20024;-90
2023/03/13 09:33:21;;;;;;;4.95;1.80;;;14.10;99.90;;;;;;5062269;28;20086;-90
2023/03/13 09:35:49;;;;;;;6.18;1.83;;;14.20;99.90;;;;;;5067777;28;20028;-91
2023/03/13 09:38:18;;;;;;;9.77;2.17;;;14.20;99.90;;;;;;5065013;28;20024;-91
2023/03/13 09:40:49;;;;;;;5.13;1.60;;;14.30;99.90;;;;;;5063896;28;20028;-91
2023/03/13 09:43:46;;;;;;;4.93;1.80;;;14.60;99.90;;;;;;5062301;28;20021;-89
2023/03/13 09:46:23;;;;;;;7.63;1.70;;;14.70;99.90;;;;;;5065961;28;20036;-89
2023/03/13 09:48:52;;;;;;;5.88;2.20;;;14.60;99.90;;;;;;5066407;28;20016;-89
2023/03/13 09:51:22;;;;;;;6.35;2.22;;;14.50;99.90;;;;;;5060702;28;20039;-90
2023/03/13 09:54:08;;;;;;;4.82;2.25;;;14.50;99.90;;;;;;5061121;28;20112;-90
2023/03/13 09:56:46;;;;;;;4.68;2.20;;;14.40;99.90;;;;;;5063719;28;20035;-89
2023/03/13 09:59:45;;;;;;;5.60;2.00;;;14.30;99.90;;;;;;5064904;28;20410;-89
2023/03/13 10:02:31;;;;;;;4.60;1.92;;;14.20;99.90;;;;;;5063468;28;20035;-88
2023/03/13 10:05:19;;;;;;;5.38;1.90;;;14.20;99.90;;;;;;5065365;28;20035;-88
2023/03/13 10:07:45;;;;;;;4.43;2.03;;;14.20;99.90;;;;;;5058910;28;20041;-88
2023/03/13 10:10:24;;;;;;;5.68;1.80;;;14.20;99.90;;;;;;5059467;28;20031;-90
2023/03/13 10:13:00;;;;;;;4.20;1.90;;;14.30;99.90;;;;;;5082035;28;20786;-91
2023/03/13 10:15:52;;;;;;;3.72;1.67;;;14.30;99.90;;;;;;5060234;28;20118;-93
2023/03/13 10:18:21;;;;;;;5.10;1.77;;;14.40;99.90;;;;;;5064698;28;20547;-88
2023/03/13 10:20:49;;;;;;;4.88;1.90;;;14.50;99.90;;;;;;5059916;28;20596;-88
2023/03/13 10:23:34;;;;;;;5.47;1.83;;;15.30;99.90;;;;;;5060748;28;20481;-86
2023/03/13 10:26:00;;;;;;;4.32;1.80;;;15.80;99.90;;;;;;5065040;28;20028;-87
2023/03/13 10:28:26;;;;;;;4.70;1.58;;;15.70;99.90;;;;;;5059363;28;20048;-88
2023/03/13 10:31:30;;;;;;;3.03;1.20;;;15.60;99.90;;;;;;5066160;28;20744;-89
2023/03/13 10:34:11;;;;;;;4.68;1.48;;;15.40;99.90;;;;;;5065084;28;20031;-90
2023/03/13 10:36:46;;;;;;;7.05;1.70;;;15.40;99.90;;;;;;5064804;28;20036;-88
2023/03/13 10:39:17;;;;;;;6.38;2.17;;;15.40;99.90;;;;;;5065158;28;20043;-86
2023/03/13 10:41:43;;;;;;;4.50;1.70;;;15.30;99.90;;;;;;5082174;28;20062;-90
2023/03/13 10:44:18;;;;;;;5.10;1.50;;;15.40;99.90;;;;;;5063740;28;20470;-89
2023/03/13 10:46:46;;;;;;;4.05;1.58;;;15.50;99.90;;;;;;5060166;28;20063;-88
2023/03/13 10:49:22;;;;;;;6.10;1.80;;;15.50;99.90;;;;;;5065319;28;20042;-87
2023/03/13 10:51:53;;;;;;;4.72;1.90;;;15.50;99.90;;;;;;5065604;28;20564;-87
2023/03/13 10:54:25;;;;;;;4.00;1.85;;;15.60;99.90;;;;;;5064713;28;20044;-89
2023/03/13 10:57:06;;;;;;;3.45;1.67;;;15.50;99.90;;;;;;5081685;28;20031;-90
2023/03/13 10:59:37;;;;;;;4.80;1.95;;;15.50;99.90;;;;;;5060129;28;20035;-92
2023/03/13 11:02:18;;;;;;;5.15;1.35;;;15.60;99.90;;;;;;5079748;28;20023;-90
2023/03/13 11:04:48;;;;;;;2.75;1.25;;;15.70;99.90;;;;;;5062304;28;20032;-88
2023/03/13 11:07:19;;;;;;;4.70;1.40;;;15.90;99.90;;;;;;5063975;28;20819;-90
2023/03/13 11:09:57;;;;;;;4.07;1.30;;;16.00;99.90;;;;;;5057696;28;20085;-88
2023/03/13 11:12:22;;;;;;;4.40;1.42;;;16.60;99.90;;;;;;5063657;28;20202;-88
2023/03/13 11:14:59;;;;;;;3.33;1.30;;;16.90;99.90;;;;;;5079981;28;20095;-89
2023/03/13 11:17:38;;;;;;;3.65;1.40;;;17.40;99.90;;;;;;5059202;28;20044;-88
2023/03/13 11:20:27;;;;;;;5.82;1.27;;;17.90;99.90;;;;;;5064674;28;20021;-89
2023/03/13 11:23:03;;;;;;;3.70;1.05;;;18.30;99.90;;;;;;5064454;28;20489;-88
2023/03/13 11:25:32;;;;;;;5.30;1.20;;;18.20;99.90;;;;;;5063670;28;20020;-90
2023/03/13 11:28:39;;;;;;;5.03;1.42;;;17.80;99.90;;;;;;5081158;28;20032;-89
2023/03/13 11:31:10;;;;;;;2.58;1.10;;;17.90;99.90;;;;;;5064527;28;20037;-88
2023/03/13 11:33:56;;;;;;;5.07;0.90;;;18.00;99.90;;;;;;5064986;28;20470;-88
2023/03/13 11:36:32;;;;;;;3.15;0.95;;;18.10;99.90;;;;;;5079717;28;20082;-88
2023/03/13 11:39:27;;;;;;;2.05;0.90;;;18.50;99.90;;;;;;5058898;28;20477;-89
2023/03/13 11:41:59;;;;;;;2.92;1.10;;;19.70;99.90;;;;;;5063328;28;20035;-87
2023/03/13 11:44:27;;;;;;;1.93;0.73;;;20.10;99.90;;;;;;5060882;28;20039;-88
2023/03/13 11:47:25;;;;;;;2.67;0.82;;;20.50;99.90;;;;;;5059506;28;20028;-87
2023/03/13 11:50:22;;;;;;;2.40;1.13;;;20.70;99.90;;;;;;5064490;28;20024;-88
2023/03/13 11:53:15;;;;;;;3.15;1.40;;;20.70;99.90;;;;;;5063216;28;20089;-89
2023/03/13 11:56:04;;;;;;;2.40;1.13;;;20.80;99.90;;;;;;5080171;28;20805;-87
2023/03/13 11:59:14;;;;;;;3.00;1.00;;;20.40;99.90;;;;;;5024191;28;20126;-88
2023/03/13 12:01:47;;;;;;;2.85;1.08;;;20.30;99.90;;;;;;5058328;28;20043;-87
2023/03/13 12:04:23;;;;;;;3.70;1.35;;;20.00;99.90;;;;;;5057439;28;20048;-88
2023/03/13 12:07:05;;;;;;;2.22;0.93;;;19.50;99.90;;;;;;5059675;28;20028;-87
2023/03/13 12:09:35;;;;;;;3.65;1.10;;;19.10;99.90;;;;;;5062873;28;20044;-90
2023/03/13 12:12:09;;;;;;;2.38;0.95;;;18.90;99.90;;;;;;5063424;28;20085;-88
2023/03/13 12:14:58;;;;;;;3.10;1.20;;;19.20;99.90;;;;;;5062475;28;20037;-88
2023/03/13 12:17:39;;;;;;;3.65;1.10;;;19.30;99.90;;;;;;5062426;28;20028;-88
2023/03/13 12:20:26;;;;;;;3.13;1.05;;;19.10;99.90;;;;;;5060528;28;20064;-89
2023/03/13 12:23:03;;;;;;;4.57;0.90;;;18.70;99.90;;;;;;5057594;28;20044;-86
2023/03/13 12:25:37;;;;;;;5.38;1.48;;;18.50;99.90;;;;;;5057748;28;20086;-87
2023/03/13 12:28:16;;;;;;;3.55;1.20;;;18.70;99.90;;;;;;5056636;28;20025;-88
2023/03/13 12:30:55;;;;;;;3.53;1.20;;;19.10;99.90;;;;;;5062219;28;20020;-87
2023/03/13 12:33:33;;;;;;;5.22;1.23;;;18.90;99.90;;;;;;5059867;28;20948;-86
2023/03/13 12:36:13;;;;;;;6.20;1.40;;;18.60;99.90;;;;;;5056332;28;20036;-85
2023/03/13 12:39:03;;;;;;;6.47;1.20;;;18.20;99.90;;;;;;5056340;28;20025;-86
2023/03/13 12:41:40;;;;;;;4.25;1.48;;;18.20;99.90;;;;;;5060024;28;20042;-86
2023/03/13 12:44:11;;;;;;;5.28;1.27;;;18.10;99.90;;;;;;5059610;28;20467;-85
2023/03/13 12:46:47;;;;;;;3.85;1.00;;;18.50;99.90;;;;;;5062856;28;20397;-86
2023/03/13 12:49:31;;;;;;;5.50;1.30;;;19.60;99.90;;;;;;5063657;28;20040;-89
2023/03/13 12:52:22;;;;;;;3.63;1.10;;;20.90;99.90;;;;;;5062043;28;20063;-86
2023/03/13 12:55:12;;;;;;;4.95;0.75;;;21.40;99.90;;;;;;5065402;28;20040;-87
2023/03/13 12:58:03;;;;;;;3.08;1.10;;;22.40;99.90;;;;;;5066809;28;20066;-86